Time;durP1;ratioP1;P1;durP2;ratioP2;P2;SDS_P1;SDS_P2;PMS_P1;PMS_P2;Temp;Humidity;BMP_temperature;BMP_pressure;BME280_temperature;BME280_humidity;BME280_pressure;Samples;Min_cycle;Max_cycle;Signal;HPM_P1;HPM_P2
2023/09/10 00:01:10;;;;;;;12.45;8.18;;;16.10;99.90;;;16.58;100.00;100650.53;5034753;28;20033;-76
2023/09/10 00:03:37;;;;;;;10.00;8.27;;;16.10;99.90;;;16.51;100.00;100643.28;5034399;28;20029;-76
2023/09/10 00:06:05;;;;;;;9.50;7.85;;;16.00;99.90;;;16.46;100.00;100640.50;5034879;28;20037;-76
2023/09/10 00:08:32;;;;;;;9.57;7.65;;;15.90;99.90;;;16.43;100.00;100640.16;5034531;28;20374;-77
2023/09/10 00:10:58;;;;;;;10.98;8.07;;;15.90;99.90;;;16.36;100.00;100623.81;5034728;28;20068;-76
2023/09/10 00:13:28;;;;;;;10.18;8.13;;;15.90;99.90;;;16.29;100.00;100621.25;5016556;28;20066;-76
2023/09/10 00:15:55;;;;;;;11.27;8.35;;;15.80;99.90;;;16.21;100.00;100625.31;5033774;28;20057;-75
2023/09/10 00:18:22;;;;;;;10.65;8.70;;;15.70;99.90;;;16.09;100.00;100611.66;5033891;28;20045;-76
2023/09/10 00:20:50;;;;;;;11.90;8.93;;;15.60;99.90;;;16.10;100.00;100610.59;5030819;28;20480;-76
2023/09/10 00:23:16;;;;;;;10.45;7.72;;;15.60;99.90;;;16.27;100.00;100606.91;5036018;28;20503;-76
2023/09/10 00:25:42;;;;;;;10.32;8.05;;;15.80;99.90;;;16.48;100.00;100601.66;5038460;28;20037;-76
2023/09/10 00:28:08;;;;;;;10.85;8.32;;;16.00;99.90;;;16.59;100.00;100595.19;5049822;28;20042;-76
2023/09/10 00:30:35;;;;;;;11.35;8.45;;;16.10;99.90;;;16.62;100.00;100610.34;5032310;28;20042;-76
2023/09/10 00:33:00;;;;;;;11.32;8.50;;;16.10;99.90;;;16.61;100.00;100616.97;5034580;28;20039;-76
2023/09/10 00:35:27;;;;;;;9.00;7.78;;;16.10;99.90;;;16.54;100.00;100628.16;5033599;28;20385;-77
2023/09/10 00:37:53;;;;;;;9.50;8.13;;;16.00;99.90;;;16.39;100.00;100637.91;5016371;28;20044;-77
2023/09/10 00:40:19;;;;;;;9.68;8.18;;;15.90;99.90;;;16.28;100.00;100646.31;5015482;28;20045;-77
2023/09/10 00:42:45;;;;;;;10.93;8.60;;;15.80;99.90;;;16.07;100.00;100646.88;5029002;28;20037;-77
2023/09/10 00:45:12;;;;;;;13.07;9.18;;;15.70;99.90;;;15.77;100.00;100693.97;5033933;28;20038;-77
2023/09/10 00:47:45;;;;;;;13.13;9.10;;;15.40;99.90;;;15.65;100.00;100672.91;5015908;28;20509;-76
2023/09/10 00:50:13;;;;;;;12.45;8.80;;;15.30;99.90;;;15.58;100.00;100672.22;5015780;28;20045;-77
2023/09/10 00:52:44;;;;;;;;;;;15.20;99.90;;;15.52;100.00;100657.56;5032282;28;20389;-76
2023/09/10 00:55:11;;;;;;;11.50;8.38;;;15.10;99.90;;;15.56;100.00;100635.88;5034234;28;20129;-76
2023/09/10 00:57:37;;;;;;;11.43;9.32;;;15.10;99.90;;;15.77;100.00;100600.44;5033726;28;20334;-76
2023/09/10 01:00:07;;;;;;;11.55;8.85;;;15.30;99.90;;;15.80;100.00;100569.69;5018814;28;20144;-76
2023/09/10 01:02:34;;;;;;;10.55;8.80;;;15.40;99.90;;;15.80;100.00;100554.03;5021352;28;20032;-76
2023/09/10 01:05:01;;;;;;;12.18;8.93;;;15.40;99.90;;;15.77;100.00;100553.69;5015492;28;20041;-77
2023/09/10 01:07:27;;;;;;;10.63;8.75;;;15.30;99.90;;;15.66;100.00;100558.22;5013057;28;20069;-77
2023/09/10 01:09:52;;;;;;;10.93;9.52;;;15.20;99.90;;;15.75;100.00;100542.13;5033894;28;20034;-76
2023/09/10 01:12:59;;;;;;;12.15;9.27;;;15.30;99.90;;;15.99;100.00;100514.41;5037513;28;20449;-77
2023/09/10 01:15:46;;;;;;;11.95;8.90;;;15.50;99.90;;;16.06;100.00;100493.03;5027554;28;20474;-77
2023/09/10 01:18:31;;;;;;;11.18;8.85;;;15.60;99.90;;;16.25;100.00;100488.00;5013666;28;20497;-77
2023/09/10 01:21:17;;;;;;;11.95;9.18;;;15.70;99.90;;;16.37;100.00;100482.34;5031374;28;20136;-77
2023/09/10 01:23:58;;;;;;;11.63;9.05;;;15.80;99.90;;;16.48;100.00;100488.78;5031018;28;20038;-77
2023/09/10 01:26:23;;;;;;;13.38;9.38;;;16.00;99.90;;;16.49;100.00;100488.53;5012959;28;20035;-77
2023/09/10 01:28:49;;;;;;;11.45;9.15;;;16.00;99.90;;;16.59;100.00;100486.97;5035762;28;20041;-77
2023/09/10 01:31:15;;;;;;;11.30;9.00;;;16.10;99.90;;;16.60;100.00;100518.91;5026590;28;20463;-77
2023/09/10 01:33:55;;;;;;;12.35;9.15;;;16.10;99.90;;;16.66;100.00;100539.91;5029672;28;20566;-76
2023/09/10 01:36:40;;;;;;;11.05;8.57;;;16.20;99.90;;;16.65;100.00;100566.63;5029595;28;20061;-77
2023/09/10 01:39:25;;;;;;;12.68;8.85;;;16.20;99.90;;;16.65;100.00;100572.13;5039082;28;20042;-77
2023/09/10 01:41:52;;;;;;;10.82;8.50;;;16.20;99.90;;;16.60;100.00;100574.84;5032623;28;20036;-76
2023/09/10 01:44:21;;;;;;;10.13;7.93;;;16.10;99.90;;;16.64;100.00;100587.00;5032318;28;20038;-77
2023/09/10 01:46:49;;;;;;;10.43;8.48;;;16.10;99.90;;;16.58;100.00;100588.03;5020120;28;20041;-77
2023/09/10 01:49:15;;;;;;;;;;;16.10;99.90;;;16.60;100.00;100588.59;5039824;28;20395;-78
2023/09/10 01:51:41;;;;;;;11.70;7.85;;;16.10;99.90;;;16.65;100.00;100590.56;5032538;28;19925;-77
2023/09/10 01:54:07;;;;;;;9.32;7.72;;;16.10;99.90;;;16.65;100.00;100604.34;5020220;28;20473;-76
2023/09/10 01:56:32;;;;;;;12.82;8.60;;;16.20;99.90;;;16.66;100.00;100617.84;5032459;28;20041;-77
2023/09/10 01:58:59;;;;;;;10.55;8.45;;;16.10;99.90;;;16.61;100.00;100616.97;5014858;28;20049;-77
2023/09/10 02:01:24;;;;;;;11.43;8.35;;;16.10;99.90;;;16.54;100.00;100615.25;5012712;28;20089;-76
2023/09/10 02:03:50;;;;;;;13.00;8.90;;;16.10;99.90;;;16.44;100.00;100606.03;5014088;28;20087;-77
2023/09/10 02:06:16;;;;;;;10.13;8.38;;;16.00;99.90;;;16.46;100.00;100618.47;5032291;28;20091;-77
2023/09/10 02:08:41;;;;;;;10.40;8.48;;;16.00;99.90;;;16.39;100.00;100615.03;5032282;28;20385;-77
2023/09/10 02:11:07;;;;;;;11.02;8.63;;;15.90;99.90;;;16.35;100.00;100617.50;5018029;28;20389;-76
2023/09/10 02:13:33;;;;;;;12.32;9.13;;;15.90;99.90;;;16.32;100.00;100604.25;5046996;28;20095;-77
2023/09/10 02:15:59;;;;;;;10.07;8.57;;;15.80;99.90;;;16.32;100.00;100611.66;5032117;28;20079;-77
2023/09/10 02:18:25;;;;;;;10.90;9.15;;;15.80;99.90;;;16.31;100.00;100599.84;5035483;28;20036;-77
2023/09/10 02:20:51;;;;;;;11.32;8.68;;;15.80;99.90;;;16.31;100.00;100591.59;5005629;28;20045;-77
2023/09/10 02:23:17;;;;;;;11.93;8.45;;;15.80;99.90;;;16.40;100.00;100594.69;5032024;28;20033;-77
2023/09/10 02:25:43;;;;;;;11.85;8.60;;;15.90;99.90;;;16.36;100.00;100599.91;5013506;28;20481;-77
2023/09/10 02:28:09;;;;;;;12.25;9.27;;;15.90;99.90;;;16.32;100.00;100603.41;5031583;28;20033;-77
2023/09/10 02:30:35;;;;;;;11.50;8.52;;;15.80;99.90;;;16.29;100.00;100602.00;5047434;28;20064;-77
2023/09/10 02:33:01;;;;;;;11.00;8.55;;;15.80;99.90;;;16.15;100.00;100587.78;5014583;28;20489;-77
2023/09/10 02:35:26;;;;;;;11.50;9.18;;;15.70;99.90;;;16.17;100.00;100596.63;5026636;28;20063;-77
2023/09/10 02:37:55;;;;;;;10.65;8.50;;;15.70;99.90;;;16.09;100.00;100586.91;5030794;28;20033;-77
2023/09/10 02:40:21;;;;;;;10.23;8.70;;;15.60;99.90;;;16.09;100.00;100584.16;5016848;28;20041;-77
2023/09/10 02:42:46;;;;;;;11.32;9.20;;;15.60;99.90;;;16.10;100.00;100577.56;5031764;28;20036;-77
2023/09/10 02:45:15;;;;;;;12.30;9.30;;;15.60;99.90;;;16.12;100.00;100582.78;5014262;28;20400;-77
2023/09/10 02:47:41;;;;;;;10.95;8.93;;;15.60;99.90;;;16.05;100.00;100573.91;5006768;28;20060;-77
2023/09/10 02:50:09;;;;;;;13.20;9.82;;;15.60;99.90;;;15.99;100.00;100564.75;5014229;28;20062;-77
2023/09/10 02:52:34;;;;;;;11.70;9.10;;;15.60;99.90;;;16.01;100.00;100564.50;5031959;28;20026;-77
2023/09/10 02:55:00;;;;;;;10.88;9.43;;;15.50;99.90;;;16.01;100.00;100554.31;5013401;28;20032;-77
2023/09/10 02:57:26;;;;;;;11.82;9.25;;;15.50;99.90;;;15.96;100.00;100551.50;5031538;28;20041;-77
2023/09/10 02:59:52;;;;;;;13.63;10.10;;;15.50;99.90;;;15.98;100.00;100551.25;5013638;28;20037;-77
2023/09/10 03:02:18;;;;;;;14.90;10.70;;;15.50;99.90;;;15.99;100.00;100539.16;5013501;28;20037;-77
2023/09/10 03:04:44;;;;;;;10.95;9.40;;;15.50;99.90;;;15.96;100.00;100544.09;5025502;28;20053;-77
2023/09/10 03:07:10;;;;;;;11.95;10.02;;;15.50;99.90;;;15.93;100.00;100541.00;5047021;28;20033;-77
2023/09/10 03:09:36;;;;;;;11.32;9.35;;;15.50;99.90;;;15.89;100.00;100537.94;5013190;28;20069;-77
2023/09/10 03:12:26;;;;;;;11.35;9.45;;;15.40;99.90;;;15.85;100.00;100545.00;5031377;28;20072;-77
2023/09/10 03:14:54;;;;;;;13.82;10.00;;;15.30;99.90;;;15.81;100.00;100536.44;5009062;28;20120;-77
2023/09/10 03:17:21;;;;;;;11.18;9.35;;;15.30;99.90;;;15.74;100.00;100534.97;5013109;28;20040;-77
2023/09/10 03:19:47;;;;;;;11.27;9.93;;;15.30;99.90;;;15.68;100.00;100537.66;5027069;28;20040;-76
2023/09/10 03:22:15;;;;;;;;;;;15.20;99.90;;;15.61;100.00;100531.47;5028826;28;20124;-77
2023/09/10 03:24:40;;;;;;;10.40;9.27;;;15.10;99.90;;;15.53;100.00;100540.16;5031476;28;20016;-77
2023/09/10 03:27:06;;;;;;;14.13;9.73;;;15.00;99.90;;;15.49;100.00;100533.50;5013570;28;20096;-77
2023/09/10 03:29:33;;;;;;;12.25;9.90;;;15.00;99.90;;;15.46;100.00;100526.59;5013023;28;20038;-77
2023/09/10 03:31:59;;;;;;;14.25;11.52;;;15.00;99.90;;;15.51;100.00;100521.16;5010455;28;20037;-75
2023/09/10 03:34:25;;;;;;;12.18;10.45;;;15.10;99.90;;;15.48;100.00;100496.94;5013597;28;20048;-76
2023/09/10 03:36:51;;;;;;;14.52;10.95;;;15.00;99.90;;;15.51;100.00;100490.09;5022951;28;20053;-76
2023/09/10 03:39:17;;;;;;;12.25;10.18;;;15.10;99.90;;;15.42;100.00;100473.22;5013521;28;20044;-76
2023/09/10 03:41:45;;;;;;;16.40;10.70;;;15.00;99.90;;;15.43;100.00;100474.06;5013157;28;20034;-76
2023/09/10 03:44:11;;;;;;;14.00;10.95;;;15.00;99.90;;;15.39;100.00;100466.31;5013257;28;20041;-77
2023/09/10 03:46:37;;;;;;;12.98;10.57;;;15.00;99.90;;;15.31;100.00;100465.91;5031338;28;20042;-77
2023/09/10 03:49:03;;;;;;;15.38;11.25;;;14.90;99.90;;;15.24;100.00;100458.66;5013424;28;20025;-77
2023/09/10 03:51:28;;;;;;;15.60;11.77;;;14.80;99.90;;;15.17;100.00;100466.25;5019468;28;20108;-77
2023/09/10 03:53:54;;;;;;;13.70;11.02;;;14.80;99.90;;;15.08;100.00;100454.03;5016446;28;20034;-76
2023/09/10 03:56:23;;;;;;;15.05;12.20;;;14.70;99.90;;;15.06;100.00;100462.53;5034455;28;20033;-75
2023/09/10 03:58:49;;;;;;;17.60;13.38;;;14.70;99.90;;;15.04;100.00;100447.41;5036299;28;20034;-75
2023/09/10 04:01:15;;;;;;;19.05;15.18;;;14.60;99.90;;;15.09;100.00;100440.03;5025698;28;20040;-80
2023/09/10 04:03:41;;;;;;;19.52;16.10;;;14.70;99.90;;;15.17;100.00;100425.03;5034918;28;20044;-75
2023/09/10 04:06:06;;;;;;;19.50;16.63;;;14.70;99.90;;;15.16;100.00;100412.41;5034417;28;20041;-75
2023/09/10 04:08:32;;;;;;;24.08;19.55;;;14.80;99.90;;;15.27;100.00;100402.38;5011649;28;20127;-75
2023/09/10 04:10:58;;;;;;;28.30;20.65;;;14.80;99.90;;;15.28;100.00;100389.47;5034131;28;20051;-77
2023/09/10 04:13:24;;;;;;;25.70;21.50;;;14.80;99.90;;;15.32;100.00;100391.44;5034390;28;20489;-76
2023/09/10 04:15:49;;;;;;;30.42;22.23;;;14.90;99.90;;;15.36;100.00;100384.34;5016195;28;20112;-75
2023/09/10 04:18:15;;;;;;;34.92;25.58;;;14.90;99.90;;;15.42;100.00;100360.50;5027236;28;20048;-76
2023/09/10 04:20:41;;;;;;;46.03;32.15;;;15.00;99.90;;;15.51;100.00;100339.72;5034496;28;20393;-77
2023/09/10 04:23:06;;;;;;;48.80;33.15;;;15.10;99.90;;;15.56;100.00;100336.22;5016481;28;20048;-76
2023/09/10 04:25:32;;;;;;;50.45;36.47;;;15.20;99.90;;;15.62;100.00;100340.66;5016276;28;20025;-76
2023/09/10 04:27:58;;;;;;;52.90;37.75;;;15.20;99.90;;;15.72;100.00;100320.69;5019282;28;20045;-77
2023/09/10 04:30:24;;;;;;;63.42;44.33;;;15.30;99.90;;;15.83;100.00;100310.63;5026131;28;20034;-76
2023/09/10 04:32:49;;;;;;;60.70;43.70;;;15.40;99.90;;;15.91;100.00;100292.88;5028790;28;20030;-76
2023/09/10 04:35:16;;;;;;;65.15;46.15;;;15.50;99.90;;;15.98;100.00;100287.16;5016411;28;20037;-76
2023/09/10 04:37:42;;;;;;;71.20;47.25;;;15.50;99.90;;;15.91;100.00;100277.22;5034238;28;20029;-76
2023/09/10 04:40:09;;;;;;;60.50;42.70;;;15.60;99.90;;;15.95;100.00;100286.59;5016235;28;20048;-77
2023/09/10 04:42:35;;;;;;;64.07;42.75;;;15.50;99.90;;;15.90;100.00;100297.53;5030243;28;20033;-76
2023/09/10 04:45:03;;;;;;;46.28;32.88;;;15.50;99.90;;;15.77;100.00;100306.19;5022860;28;20037;-76
2023/09/10 04:47:29;;;;;;;44.63;31.98;;;15.30;99.90;;;15.64;100.00;100330.25;5016059;28;20105;-77
2023/09/10 04:49:55;;;;;;;33.80;27.08;;;15.20;99.90;;;15.62;100.00;100343.41;5016111;28;20083;-76
2023/09/10 04:52:21;;;;;;;39.33;28.75;;;15.20;99.90;;;15.60;100.00;100334.59;5032027;28;20501;-76
2023/09/10 04:54:47;;;;;;;46.00;32.22;;;15.20;99.90;;;15.59;100.00;100332.94;5020647;28;20033;-76
2023/09/10 04:57:13;;;;;;;43.05;31.17;;;15.20;99.90;;;15.64;100.00;100334.94;5022296;28;20041;-76
2023/09/10 04:59:39;;;;;;;40.10;29.42;;;15.20;99.90;;;15.68;100.00;100328.66;5019247;28;20033;-76
2023/09/10 05:02:05;;;;;;;37.72;27.48;;;15.20;99.90;;;15.72;100.00;100333.63;5024721;28;20554;-76
2023/09/10 05:04:31;;;;;;;34.40;25.65;;;15.20;99.90;;;15.68;100.00;100345.16;5013780;28;20037;-78
2023/09/10 05:06:58;;;;;;;34.88;25.90;;;15.10;99.90;;;15.66;100.00;100350.09;5035953;28;20091;-78
2023/09/10 05:09:24;;;;;;;35.20;25.90;;;15.10;99.90;;;15.72;100.00;100352.88;5023693;28;20029;-77
2023/09/10 05:11:56;;;;;;;34.87;26.10;;;15.10;99.90;;;15.74;100.00;100361.72;5026209;28;20152;-77
2023/09/10 05:14:22;;;;;;;34.40;25.40;;;15.20;99.90;;;15.73;100.00;100363.59;5018209;28;20286;-77
2023/09/10 05:16:48;;;;;;;34.67;25.08;;;15.20;99.90;;;15.70;100.00;100363.31;5032828;28;20034;-77
2023/09/10 05:19:14;;;;;;;28.83;23.92;;;15.20;99.90;;;15.74;100.00;100379.03;5017860;28;20040;-77
2023/09/10 05:21:39;;;;;;;32.70;25.20;;;15.20;99.90;;;15.78;100.00;100380.19;5018377;28;20087;-77
2023/09/10 05:24:07;;;;;;;32.40;25.33;;;15.20;99.90;;;15.80;100.00;100372.50;5039330;28;20431;-77
2023/09/10 05:26:34;;;;;;;37.63;26.92;;;15.30;99.90;;;15.89;100.00;100370.13;5022045;28;20030;-77
2023/09/10 05:28:59;;;;;;;34.17;26.35;;;15.30;99.90;;;15.98;100.00;100370.50;5005822;28;20128;-77
2023/09/10 05:31:25;;;;;;;33.97;26.45;;;15.40;99.90;;;16.08;100.00;100373.38;5032447;28;20378;-78
2023/09/10 05:33:51;;;;;;;34.60;25.27;;;15.50;99.90;;;16.13;100.00;100380.00;5016723;28;20052;-79
2023/09/10 05:36:17;;;;;;;33.47;25.98;;;15.50;99.90;;;16.21;100.00;100383.13;5036056;28;20048;-77
2023/09/10 05:38:42;;;;;;;32.40;26.02;;;15.60;99.90;;;16.23;100.00;100382.84;5024981;28;20041;-77
2023/09/10 05:41:08;;;;;;;40.28;27.63;;;15.60;99.90;;;16.34;100.00;100395.63;5043382;28;20048;-77
2023/09/10 05:43:34;;;;;;;40.38;30.73;;;15.70;99.90;;;16.37;100.00;100408.00;5023891;28;20036;-77
2023/09/10 05:46:00;;;;;;;44.17;32.80;;;15.80;99.90;;;16.47;100.00;100394.34;5039020;28;20029;-76
2023/09/10 05:48:26;;;;;;;45.97;32.53;;;15.90;99.90;;;16.59;100.00;100407.09;5029610;28;20485;-78
2023/09/10 05:50:58;;;;;;;42.20;31.52;;;16.00;99.90;;;16.67;100.00;100399.19;5023838;28;20030;-78
2023/09/10 05:53:27;;;;;;;39.15;30.42;;;16.10;99.90;;;16.70;100.00;100408.81;5008628;28;20507;-78
2023/09/10 05:55:53;;;;;;;43.20;31.75;;;16.10;99.90;;;16.83;100.00;100432.34;5015243;28;20096;-78
2023/09/10 05:58:20;;;;;;;44.60;33.00;;;16.30;99.90;;;16.91;100.00;100433.78;5014413;28;20037;-77
2023/09/10 06:00:46;;;;;;;38.72;31.20;;;16.30;99.90;;;17.05;100.00;100435.03;5029393;28;20500;-78
2023/09/10 06:03:12;;;;;;;43.15;32.10;;;16.50;99.90;;;17.18;100.00;100449.41;5031656;28;20071;-78
2023/09/10 06:05:38;;;;;;;41.47;31.13;;;16.50;99.90;;;17.11;100.00;100482.75;5021824;28;20033;-78
2023/09/10 06:08:04;;;;;;;39.45;29.98;;;16.60;99.90;;;17.28;100.00;100506.53;5028784;28;20045;-79
2023/09/10 06:10:30;;;;;;;38.22;29.52;;;16.70;99.90;;;17.34;100.00;100525.63;4998075;28;20033;-79
2023/09/10 06:12:55;;;;;;;36.72;27.00;;;16.80;99.90;;;17.57;100.00;100551.13;5033001;28;20412;-79
2023/09/10 06:15:21;;;;;;;39.30;28.83;;;16.90;99.90;;;17.62;100.00;100576.00;5035347;28;20029;-82
2023/09/10 06:17:48;;;;;;;38.65;29.42;;;17.00;99.90;;;17.66;100.00;100604.69;5033168;28;20404;-82
2023/09/10 06:20:14;;;;;;;36.55;28.77;;;17.20;99.90;;;17.89;100.00;100621.09;5014098;28;20041;-81
2023/09/10 06:22:40;;;;;;;34.97;27.33;;;17.30;99.90;;;17.92;100.00;100645.44;5017385;28;20060;-80
2023/09/10 06:25:06;;;;;;;34.75;28.50;;;17.40;99.90;;;18.10;100.00;100658.00;5035711;28;20083;-81
2023/09/10 06:27:32;;;;;;;36.08;29.50;;;17.60;99.90;;;18.23;100.00;100679.59;5006039;28;20099;-80
2023/09/10 06:29:58;;;;;;;35.83;28.75;;;17.70;99.90;;;18.43;100.00;100699.28;5041072;28;20123;-79
2023/09/10 06:32:24;;;;;;;34.67;27.63;;;17.90;99.90;;;18.59;100.00;100712.06;5029755;28;20045;-79
2023/09/10 06:34:50;;;;;;;34.70;28.50;;;18.00;99.90;;;18.70;100.00;100737.81;5031976;28;20092;-78
2023/09/10 06:37:16;;;;;;;35.38;28.38;;;18.20;99.90;;;18.82;100.00;100768.00;4998551;28;20349;-81
2023/09/10 06:39:43;;;;;;;36.40;27.50;;;18.30;99.90;;;18.96;100.00;100790.44;5001851;28;20103;-78
2023/09/10 06:42:12;;;;;;;28.83;24.23;;;18.50;99.90;;;19.15;100.00;100804.63;5025140;28;20033;-78
2023/09/10 06:44:43;;;;;;;31.13;25.70;;;;;;;19.33;100.00;100816.31;5015120;28;20473;-78
2023/09/10 06:47:10;;;;;;;27.10;24.10;;;;;;;19.48;100.00;100824.66;5032599;28;20394;-78
2023/09/10 06:49:36;;;;;;;29.48;23.73;;;;;;;19.59;100.00;100844.88;5031875;28;20033;-78
2023/09/10 06:52:04;;;;;;;29.00;25.55;;;;;;;19.75;100.00;100856.81;5031797;28;20069;-78
2023/09/10 06:54:31;;;;;;;35.97;29.83;;;;;;;19.90;100.00;100877.31;5032248;28;20045;-78
2023/09/10 06:56:58;;;;;;;25.77;22.95;;;;;;;19.95;100.00;100882.91;5014630;28;20044;-79
2023/09/10 06:59:24;;;;;;;26.83;23.23;;;;;;;20.05;100.00;100885.69;5031177;28;20037;-78
2023/09/10 07:01:51;;;;;;;28.42;23.83;;;;;;;20.04;100.00;100902.56;5036099;28;20488;-78
2023/09/10 07:04:21;;;;;;;28.98;24.83;;;;;;;20.29;100.00;100909.25;5031224;28;20033;-78
2023/09/10 07:06:49;;;;;;;32.42;26.77;;;;;;;20.46;100.00;100915.34;5031130;28;20389;-78
2023/09/10 07:09:16;;;;;;;;;;;;;;;20.48;100.00;100923.38;5031465;28;20033;-77
2023/09/10 07:11:42;;;;;;;42.13;35.17;;;;;;;20.70;100.00;100925.88;5031749;28;19917;-79
2023/09/10 07:14:08;;;;;;;40.65;34.28;;;;;;;20.84;100.00;100940.03;5031744;28;20038;-78
2023/09/10 07:16:34;;;;;;;43.38;35.10;;;;;;;20.78;100.00;100939.16;5013109;28;20037;-79
2023/09/10 07:19:06;;;;;;;43.08;33.28;;;;;;;20.88;100.00;100943.06;5031399;28;20037;-80
2023/09/10 07:21:34;;;;;;;43.78;34.15;;;;;;;21.16;100.00;100947.19;5017798;28;20025;-79
2023/09/10 07:24:02;;;;;;;40.25;33.63;;;;;;;21.29;100.00;100951.31;5037921;28;20033;-79
2023/09/10 07:26:29;;;;;;;39.97;32.90;;;;;;;21.29;100.00;100962.41;5032896;28;20060;-79
2023/09/10 07:28:55;;;;;;;40.28;32.47;;;;;;;21.52;100.00;100976.75;5035236;28;20401;-78
2023/09/10 07:31:21;;;;;;;38.42;32.95;;;;;;;21.75;100.00;100971.69;5035930;28;20388;-79
2023/09/10 07:33:47;;;;;;;40.35;32.17;;;;;;;21.84;100.00;100979.13;5035819;28;20045;-79
2023/09/10 07:36:13;;;;;;;39.67;31.85;;;;;;;21.78;100.00;100987.78;5034775;28;20479;-79
2023/09/10 07:38:39;;;;;;;36.50;30.73;;;;;;;21.44;100.00;100982.88;5035287;28;20058;-79
2023/09/10 07:41:05;;;;;;;39.28;31.90;;;;;;;21.47;100.00;100977.59;5035007;28;20042;-77
2023/09/10 07:43:31;;;;;;;36.53;29.92;;;;;;;21.78;100.00;100985.84;5035288;28;20072;-78
2023/09/10 07:45:57;;;;;;;34.65;29.83;;;;;;;21.96;100.00;100991.88;5034380;28;20124;-78
2023/09/10 07:48:23;;;;;;;34.35;29.25;;;;;;;22.11;100.00;100990.94;5034762;28;20436;-78
2023/09/10 07:50:57;;;;;;;34.15;28.55;;;;;;;22.37;100.00;100988.81;5035123;28;20171;-78
2023/09/10 07:53:23;;;;;;;32.17;28.15;;;;;;;22.33;100.00;100998.88;5034451;28;20112;-78
2023/09/10 07:55:50;;;;;;;35.73;27.13;;;;;;;22.50;100.00;101003.25;5034918;28;20109;-78
2023/09/10 07:58:16;;;;;;;33.15;27.42;;;;;;;22.46;100.00;101013.25;5035296;28;20034;-79
2023/09/10 08:00:43;;;;;;;33.30;28.33;;;;;;;22.54;100.00;101026.56;5034675;28;20052;-78
2023/09/10 08:03:09;;;;;;;31.65;28.17;;;;;;;22.57;100.00;101019.59;5034673;28;20041;-78
2023/09/10 08:05:35;;;;;;;31.83;27.02;;;;;;;22.92;100.00;101025.97;5039249;28;20038;-78
2023/09/10 08:08:05;;;;;;;34.58;26.85;;;;;;;23.21;100.00;101022.38;5034357;28;20045;-78
2023/09/10 08:10:33;;;;;;;29.63;25.35;;;;;;;23.43;100.00;101030.25;5033857;28;20048;-78
2023/09/10 08:13:00;;;;;;;27.77;24.88;;;;;;;23.49;100.00;101029.09;5033791;28;20063;-78
2023/09/10 08:15:26;;;;;;;29.95;25.25;;;;;;;23.59;100.00;101033.69;5033726;28;20065;-78
2023/09/10 08:17:55;;;;;;;31.13;24.77;;;;;;;23.27;100.00;101026.78;5034773;28;20071;-80
2023/09/10 08:20:22;;;;;;;29.58;24.55;;;;;;;23.51;100.00;101035.19;5035635;28;20041;-79
2023/09/10 08:22:48;;;;;;;30.88;24.98;;;;;;;23.48;100.00;101034.94;5034811;28;20063;-79
2023/09/10 08:25:14;;;;;;;29.73;24.58;;;;;;;23.44;100.00;101031.09;5034849;28;20038;-78
2023/09/10 08:27:41;;;;;;;29.98;24.73;;;;;;;23.73;100.00;101032.97;5016189;28;20119;-80
2023/09/10 08:30:09;;;;;;;28.52;25.45;;;;;;;23.34;100.00;101027.28;5034352;28;20095;-78
2023/09/10 08:32:36;;;;;;;27.90;23.90;;;;;;;23.66;100.00;101034.19;5034744;28;20037;-79
2023/09/10 08:35:04;;;;;;;29.45;24.15;;;;;;;24.17;100.00;101045.84;5034432;28;20076;-78
2023/09/10 08:37:30;;;;;;;26.88;22.45;;;;;;;24.21;100.00;101037.69;5033407;28;20041;-77
2023/09/10 08:39:57;;;;;;;26.25;22.42;;;;;;;24.25;100.00;101033.16;5034538;28;20033;-77
2023/09/10 08:42:38;;;;;;;24.58;20.90;;;;;;;24.59;100.00;101036.84;5034050;28;20461;-79
2023/09/10 08:45:10;;;;;;;26.10;22.00;;;;;;;24.54;100.00;101035.00;5034311;28;20048;-80
2023/09/10 08:47:41;;;;;;;26.65;21.73;;;;;;;24.64;100.00;101042.34;5033060;28;20090;-80
2023/09/10 08:50:13;;;;;;;24.30;21.80;;;;;;;24.52;100.00;101035.28;5038303;28;20040;-80
2023/09/10 08:52:43;;;;;;;28.25;24.02;;;;;;;24.39;100.00;101044.38;5011659;28;20454;-79
2023/09/10 08:55:11;;;;;;;25.67;21.75;;;;;;;24.37;100.00;101041.91;5028880;28;20045;-79
2023/09/10 08:57:39;;;;;;;26.42;22.80;;;;;;;24.36;100.00;101042.22;5029929;28;20040;-80
2023/09/10 09:00:12;;;;;;;;;;;;;;;24.62;100.00;101051.03;5041123;28;20052;-80
2023/09/10 09:02:42;;;;;;;27.15;22.55;;;;;;;24.62;100.00;101053.81;5024669;28;19917;-81
2023/09/10 09:05:09;;;;;;;28.45;24.05;;;;;;;24.58;100.00;101054.72;5036440;28;20076;-82
2023/09/10 09:07:57;;;;;;;25.55;21.88;;;;;;;25.17;100.00;101051.53;5005611;28;20045;-85
2023/09/10 09:10:28;;;;;;;22.42;19.95;;;;;;;25.43;100.00;101055.53;5015979;28;20053;-82
2023/09/10 09:13:01;;;;;;;23.73;20.65;;;;;;;25.27;100.00;101062.53;5036095;28;20025;-81
2023/09/10 09:15:27;;;;;;;24.70;22.00;;;;;;;25.28;100.00;101062.22;5037120;28;20037;-82
2023/09/10 09:17:56;;;;;;;23.73;19.33;;;;;;;25.95;100.00;101056.50;5034326;28;20114;-85
2023/09/10 09:20:24;;;;;;;24.77;22.02;;;;;;;25.37;100.00;101062.34;5007215;28;20508;-82
2023/09/10 09:22:54;;;;;;;;;;;;;;;25.81;100.00;101054.53;5017151;28;20460;-80
2023/09/10 09:25:20;;;;;;;25.02;20.58;;;;;;;25.77;100.00;101061.91;5034030;28;19946;-78
2023/09/10 09:27:48;;;;;;;19.85;17.80;;;;;;;26.69;100.00;101060.19;5043362;28;20048;-78
2023/09/10 09:30:14;;;;;;;21.27;18.38;;;;;;;26.69;100.00;101061.03;5033648;28;20041;-83
2023/09/10 09:32:41;;;;;;;24.13;19.90;;;;;;;25.85;100.00;101061.16;5033367;28;20034;-81
2023/09/10 09:35:10;;;;;;;21.98;19.23;;;;;;;25.98;100.00;101059.50;5015111;28;20435;-80
2023/09/10 09:37:37;;;;;;;20.58;17.17;;;;;;;27.02;100.00;101062.75;5033939;28;20029;-79
2023/09/10 09:40:04;;;;;;;20.33;17.05;;;;;;;27.49;100.00;101058.75;5033614;28;20417;-81
2023/09/10 09:42:30;;;;;;;18.20;15.50;;;;;;;27.77;100.00;101064.16;5037528;28;20102;-81
2023/09/10 09:44:57;;;;;;;19.42;15.00;;;;;;;28.22;100.00;101066.78;5033134;28;20061;-81
2023/09/10 09:47:23;;;;;;;18.27;16.40;;;;;;;27.04;100.00;101060.47;5032278;28;20650;-82
2023/09/10 09:49:50;;;;;;;22.30;15.93;;;;;;;26.63;100.00;101058.66;5032962;28;20282;-80
2023/09/10 09:52:21;;;;;;;18.65;16.67;;;;;;;26.98;100.00;101056.16;5033062;28;20037;-81
2023/09/10 09:54:47;;;;;;;18.95;16.90;;;;;;;26.64;100.00;101052.75;5033128;28;20048;-81
2023/09/10 09:57:14;;;;;;;17.85;16.00;;;;;;;27.22;100.00;101055.81;5033268;28;20440;-81
2023/09/10 09:59:40;;;;;;;14.23;12.32;;;;;;;27.96;100.00;101047.06;5033017;28;20366;-81
2023/09/10 10:02:16;;;;;;;12.88;11.48;;;;;;;28.14;95.49;101061.97;5032148;28;20519;-80
2023/09/10 10:04:43;;;;;;;16.45;13.38;;;;;;;28.53;87.09;101065.81;5035681;28;20563;-81
2023/09/10 10:07:14;;;;;;;18.70;14.90;;;;;;;28.26;91.08;101050.94;5030491;28;20106;-79
2023/09/10 10:09:41;;;;;;;17.58;13.73;;;;;;;28.41;91.12;101046.84;5033407;28;20122;-81
2023/09/10 10:12:08;;;;;;;16.58;12.68;;;;;;;29.96;77.39;101049.09;5037942;28;20112;-81
2023/09/10 10:14:36;;;;;;;16.35;14.15;;;;;;;30.25;77.58;101053.09;5025342;28;20077;-79
2023/09/10 10:17:04;;;;;;;16.05;12.40;;;;;;;32.41;62.01;101048.88;5030542;28;20176;-83
2023/09/10 10:19:31;;;;;;;12.82;11.32;;;;;;;32.98;58.87;101054.53;5023820;28;20026;-82
2023/09/10 10:21:59;;;;;;;12.77;11.20;;;;;;;33.65;53.66;101053.06;5036306;28;20033;-83